Time;durP1;ratioP1;P1;durP2;ratioP2;P2;SDS_P1;SDS_P2;PMS_P1;PMS_P2;Temp;Humidity;BMP_temperature;BMP_pressure;BME280_temperature;BME280_humidity;BME280_pressure;Samples;Min_cycle;Max_cycle;Signal;HPM_P1;HPM_P2
2023/04/15 00:01:25;;;;;;;17.17;11.37;;;6.30;99.90;;;;;;5019444;28;20608;-81
2023/04/15 00:03:53;;;;;;;19.73;11.80;;;6.30;99.90;;;;;;5018886;28;20755;-80
2023/04/15 00:06:21;;;;;;;16.00;10.70;;;6.30;99.90;;;;;;5028792;28;20256;-80
2023/04/15 00:08:49;;;;;;;15.90;10.40;;;6.30;99.90;;;;;;5021769;28;20207;-83
2023/04/15 00:11:17;;;;;;;16.17;10.40;;;6.30;99.90;;;;;;5029360;28;20202;-81
2023/04/15 00:13:44;;;;;;;14.73;10.37;;;6.20;99.90;;;;;;5015489;28;20300;-79
2023/04/15 00:16:11;;;;;;;15.87;10.60;;;6.20;99.90;;;;;;5020848;28;20225;-81
2023/04/15 00:18:38;;;;;;;22.43;11.13;;;6.10;99.90;;;;;;5023556;28;20207;-81
2023/04/15 00:21:05;;;;;;;14.97;10.53;;;6.10;99.90;;;;;;5025217;28;20221;-81
2023/04/15 00:23:31;;;;;;;13.20;9.47;;;6.10;99.90;;;;;;5027468;28;20659;-83
2023/04/15 00:25:58;;;;;;;14.30;10.70;;;6.10;99.90;;;;;;5025179;28;20215;-81
2023/04/15 00:28:26;;;;;;;14.63;10.73;;;6.00;99.90;;;;;;5021284;28;20212;-80
2023/04/15 00:30:53;;;;;;;15.20;10.23;;;6.00;99.90;;;;;;5009576;28;20756;-80
2023/04/15 00:33:19;;;;;;;16.13;10.50;;;6.00;99.90;;;;;;5029065;28;20299;-80
2023/04/15 00:35:46;;;;;;;15.70;9.53;;;6.00;99.90;;;;;;5010449;28;20720;-80
2023/04/15 00:38:13;;;;;;;15.17;10.67;;;6.00;99.90;;;;;;5018752;28;20205;-80
2023/04/15 00:40:40;;;;;;;18.47;11.20;;;5.90;99.90;;;;;;5022640;28;20202;-79
2023/04/15 00:43:07;;;;;;;13.23;10.30;;;5.90;99.90;;;;;;5021314;28;20299;-80
2023/04/15 00:45:34;;;;;;;14.97;10.13;;;5.90;99.90;;;;;;5022740;28;20216;-79
2023/04/15 00:48:01;;;;;;;16.30;9.90;;;5.90;99.90;;;;;;5013668;28;20245;-80
2023/04/15 00:50:27;;;;;;;15.67;10.73;;;6.00;99.90;;;;;;5020484;28;20205;-80
2023/04/15 00:52:54;;;;;;;14.30;10.00;;;5.90;99.90;;;;;;5023785;28;20240;-80
2023/04/15 00:55:21;;;;;;;18.53;11.10;;;5.90;99.90;;;;;;5007295;28;20206;-81
2023/04/15 00:57:49;;;;;;;15.90;11.33;;;5.80;99.90;;;;;;5026711;28;20241;-80
2023/04/15 01:00:17;;;;;;;14.40;11.13;;;5.80;99.90;;;;;;5022910;28;20432;-80
2023/04/15 01:02:44;;;;;;;13.80;10.83;;;5.80;99.90;;;;;;5015429;28;20657;-80
2023/04/15 01:05:11;;;;;;;15.20;10.40;;;5.80;99.90;;;;;;5026397;28;20211;-83
2023/04/15 01:07:37;;;;;;;16.67;11.20;;;5.80;99.90;;;;;;5024995;28;20212;-80
2023/04/15 01:10:05;;;;;;;15.23;11.67;;;5.90;99.90;;;;;;5006590;28;20208;-82
2023/04/15 01:12:32;;;;;;;16.10;11.20;;;5.80;99.90;;;;;;5026032;28;20248;-81
2023/04/15 01:15:01;;;;;;;18.13;11.33;;;5.80;99.90;;;;;;5023386;28;20220;-82
2023/04/15 01:17:28;;;;;;;17.23;11.17;;;5.80;99.90;;;;;;5028787;28;20333;-80
2023/04/15 01:19:58;;;;;;;18.23;11.97;;;5.70;99.90;;;;;;5012559;28;20700;-81
2023/04/15 01:22:26;;;;;;;17.87;11.37;;;5.80;99.90;;;;;;5024356;28;20196;-81
2023/04/15 01:25:17;;;;;;;17.27;11.50;;;5.70;99.90;;;;;;5013287;28;20554;-81
2023/04/15 01:27:44;;;;;;;17.63;11.03;;;5.70;99.90;;;;;;5023837;28;20229;-81
2023/04/15 01:30:11;;;;;;;18.70;11.70;;;5.60;99.90;;;;;;5014967;28;20966;-78
2023/04/15 01:32:38;;;;;;;15.00;10.97;;;5.60;99.90;;;;;;5025445;28;20212;-81
2023/04/15 01:35:05;;;;;;;14.47;10.60;;;5.60;99.90;;;;;;5024936;28;20209;-80
2023/04/15 01:37:32;;;;;;;17.57;11.40;;;5.60;99.90;;;;;;5022249;28;20293;-81
2023/04/15 01:39:59;;;;;;;18.47;11.07;;;5.50;99.90;;;;;;5022330;28;20270;-81
2023/04/15 01:42:26;;;;;;;17.07;10.93;;;5.50;99.90;;;;;;5024867;28;20214;-80
2023/04/15 01:44:53;;;;;;;18.10;10.83;;;5.40;99.90;;;;;;5005837;28;20321;-81
2023/04/15 01:47:20;;;;;;;18.10;10.70;;;5.40;99.90;;;;;;5026764;28;20312;-80
2023/04/15 01:49:47;;;;;;;16.77;11.37;;;5.40;99.90;;;;;;5022013;28;20672;-81
2023/04/15 01:52:14;;;;;;;15.87;11.33;;;5.30;99.90;;;;;;5026103;28;20239;-80
2023/04/15 01:54:41;;;;;;;13.60;11.17;;;5.30;99.90;;;;;;5024404;28;20231;-80
2023/04/15 01:57:08;;;;;;;15.43;11.30;;;5.30;99.90;;;;;;5024350;28;20547;-81
2023/04/15 01:59:36;;;;;;;14.00;10.70;;;5.30;99.90;;;;;;5002881;28;20222;-82
2023/04/15 02:02:03;;;;;;;16.30;10.87;;;5.20;99.90;;;;;;5019314;28;20239;-80
2023/04/15 02:04:30;;;;;;;15.57;10.63;;;5.10;99.90;;;;;;5019906;28;20601;-80
2023/04/15 02:06:57;;;;;;;18.57;11.03;;;5.20;99.90;;;;;;5026785;28;20213;-80
2023/04/15 02:09:24;;;;;;;16.43;11.53;;;5.20;99.90;;;;;;5005686;28;20665;-81
2023/04/15 02:11:53;;;;;;;18.30;10.87;;;5.10;99.90;;;;;;5019854;28;20246;-79
2023/04/15 02:14:20;;;;;;;15.27;10.70;;;5.10;99.90;;;;;;5025430;28;20216;-80
2023/04/15 02:16:47;;;;;;;14.73;10.37;;;5.10;99.90;;;;;;5024739;28;20213;-80
2023/04/15 02:19:14;;;;;;;15.77;10.93;;;5.00;99.90;;;;;;5022618;28;20205;-80
2023/04/15 02:21:41;;;;;;;14.57;10.33;;;5.00;99.90;;;;;;5020755;28;20303;-80
2023/04/15 02:24:07;;;;;;;18.97;12.07;;;5.00;99.90;;;;;;5026622;28;20294;-82
2023/04/15 02:26:35;;;;;;;16.80;11.70;;;5.00;99.90;;;;;;5017111;28;20201;-81
2023/04/15 02:29:02;;;;;;;16.80;11.53;;;4.90;99.90;;;;;;5011573;28;20203;-80
2023/04/15 02:31:28;;;;;;;15.70;11.17;;;4.90;99.90;;;;;;4988389;28;20241;-81
2023/04/15 02:33:55;;;;;;;14.50;10.47;;;4.90;99.90;;;;;;5001784;28;20243;-82
2023/04/15 02:36:22;;;;;;;15.30;10.37;;;4.90;99.90;;;;;;5010493;28;20202;-81
2023/04/15 02:38:49;;;;;;;19.77;11.37;;;4.90;99.90;;;;;;5011218;28;20295;-81
2023/04/15 02:41:16;;;;;;;19.20;11.50;;;4.90;99.90;;;;;;5005704;28;20279;-81
2023/04/15 02:43:43;;;;;;;15.10;10.53;;;4.90;99.90;;;;;;5011250;28;20248;-80
2023/04/15 02:46:13;;;;;;;17.40;10.63;;;4.90;99.90;;;;;;5025698;28;20293;-79
2023/04/15 02:48:40;;;;;;;17.70;11.43;;;4.90;99.90;;;;;;5016901;28;20210;-80
2023/04/15 02:51:12;;;;;;;16.53;10.47;;;4.90;99.90;;;;;;5020023;28;20212;-81
2023/04/15 02:53:40;;;;;;;17.83;10.80;;;4.90;99.90;;;;;;5019462;28;20209;-81
2023/04/15 02:56:07;;;;;;;16.23;10.83;;;4.90;99.90;;;;;;5024799;28;20204;-82
2023/04/15 02:58:34;;;;;;;17.97;10.20;;;4.90;99.90;;;;;;5022198;28;20580;-81
2023/04/15 03:01:02;;;;;;;18.03;11.50;;;4.80;99.90;;;;;;5007922;28;20223;-81
2023/04/15 03:03:29;;;;;;;15.50;10.40;;;4.80;99.90;;;;;;5006342;28;20218;-81
2023/04/15 03:05:56;;;;;;;19.37;11.20;;;4.80;99.90;;;;;;5010347;28;20323;-81
2023/04/15 03:08:23;;;;;;;14.93;10.80;;;4.80;99.90;;;;;;5025722;28;20238;-79
2023/04/15 03:10:51;;;;;;;17.90;11.77;;;4.80;99.90;;;;;;5002468;28;20302;-81
2023/04/15 03:13:18;;;;;;;16.97;11.03;;;4.80;99.90;;;;;;5026478;28;20672;-82
2023/04/15 03:15:46;;;;;;;16.17;10.13;;;4.80;99.90;;;;;;5012028;28;20221;-81
2023/04/15 03:18:12;;;;;;;16.17;11.27;;;4.80;99.90;;;;;;5022682;28;20212;-81
2023/04/15 03:20:40;;;;;;;18.23;10.37;;;4.80;99.90;;;;;;5022211;28;20691;-81
2023/04/15 03:23:07;;;;;;;15.07;9.90;;;4.80;99.90;;;;;;5024209;28;20209;-81
2023/04/15 03:25:36;;;;;;;18.03;10.27;;;4.70;99.90;;;;;;5028719;28;20657;-81
2023/04/15 03:28:03;;;;;;;19.73;11.00;;;4.70;99.90;;;;;;5024639;28;20208;-78
2023/04/15 03:30:30;;;;;;;20.33;11.03;;;4.70;99.90;;;;;;5026507;28;20308;-82
2023/04/15 03:32:57;;;;;;;18.57;11.80;;;4.70;99.90;;;;;;5018633;28;20301;-80
2023/04/15 03:35:24;;;;;;;19.83;11.60;;;4.70;99.90;;;;;;5023746;28;20657;-81
2023/04/15 03:37:51;;;;;;;13.10;9.73;;;4.80;99.90;;;;;;5005537;28;20809;-81
2023/04/15 03:40:18;;;;;;;14.67;9.63;;;4.70;99.90;;;;;;5001326;28;20242;-80
2023/04/15 03:42:44;;;;;;;17.03;11.00;;;4.60;99.90;;;;;;5011090;28;20282;-82
2023/04/15 03:45:11;;;;;;;20.70;11.47;;;4.60;99.90;;;;;;5012331;28;20259;-80
2023/04/15 03:47:38;;;;;;;19.33;11.07;;;4.60;99.90;;;;;;5020086;28;20214;-81
2023/04/15 03:50:06;;;;;;;16.27;11.03;;;4.60;99.90;;;;;;5021860;28;20207;-81
2023/04/15 03:52:33;;;;;;;18.53;10.47;;;4.60;99.90;;;;;;5016106;28;20198;-81
2023/04/15 03:55:00;;;;;;;18.70;11.20;;;4.60;99.90;;;;;;5023828;28;20294;-81
2023/04/15 03:57:27;;;;;;;19.20;11.20;;;4.50;99.90;;;;;;5011692;28;20636;-82
2023/04/15 03:59:54;;;;;;;18.23;11.80;;;4.50;99.90;;;;;;5019150;28;20700;-82
2023/04/15 04:02:21;;;;;;;20.70;11.73;;;4.50;99.90;;;;;;5024103;28;20295;-80
2023/04/15 04:04:49;;;;;;;20.17;13.03;;;4.50;99.90;;;;;;5023132;28;20268;-81
2023/04/15 04:07:17;;;;;;;16.83;10.97;;;4.50;99.90;;;;;;5022492;28;20732;-81
2023/04/15 04:09:44;;;;;;;18.43;12.10;;;4.50;99.90;;;;;;5020364;28;20209;-82
2023/04/15 04:12:13;;;;;;;21.47;11.17;;;4.60;99.90;;;;;;5024158;28;20215;-82
2023/04/15 04:14:39;;;;;;;21.17;13.03;;;4.50;99.90;;;;;;5028457;28;20293;-81
2023/04/15 04:17:07;;;;;;;22.73;12.33;;;4.60;99.90;;;;;;5023897;28;20285;-82
2023/04/15 04:19:34;;;;;;;24.20;13.30;;;4.60;99.90;;;;;;5019458;28;20298;-82
2023/04/15 04:22:01;;;;;;;21.87;12.67;;;4.60;99.90;;;;;;5020533;28;20506;-81
2023/04/15 04:24:27;;;;;;;23.97;13.93;;;4.60;99.90;;;;;;5010533;28;20200;-80
2023/04/15 04:26:55;;;;;;;26.27;13.30;;;4.70;99.90;;;;;;5031768;28;20202;-80
2023/04/15 04:29:23;;;;;;;22.47;13.10;;;4.70;99.90;;;;;;5030537;28;20274;-82
2023/04/15 04:31:49;;;;;;;23.33;13.40;;;4.70;99.90;;;;;;5030727;28;20211;-81
2023/04/15 04:34:16;;;;;;;23.03;14.37;;;4.70;99.90;;;;;;5019771;28;20206;-80
2023/04/15 04:36:43;;;;;;;22.77;12.83;;;4.70;99.90;;;;;;5015212;28;20298;-82
2023/04/15 04:39:10;;;;;;;22.20;12.37;;;4.80;99.90;;;;;;5015538;28;20684;-83
2023/04/15 04:41:36;;;;;;;21.60;12.50;;;4.80;99.90;;;;;;5025082;28;20200;-82
2023/04/15 04:44:03;;;;;;;24.70;12.73;;;4.80;99.90;;;;;;5024440;28;20237;-81
2023/04/15 04:46:30;;;;;;;22.33;13.43;;;4.70;99.90;;;;;;5007604;28;20235;-82
2023/04/15 04:48:57;;;;;;;20.80;12.17;;;4.80;99.90;;;;;;5004633;28;20212;-81
2023/04/15 04:51:25;;;;;;;22.80;13.77;;;4.80;99.90;;;;;;5013930;28;20298;-84
2023/04/15 04:53:51;;;;;;;23.73;13.27;;;4.80;99.90;;;;;;4998272;28;20210;-81
2023/04/15 04:56:21;;;;;;;21.10;13.27;;;4.80;99.90;;;;;;5026150;28;20215;-82
2023/04/15 04:58:50;;;;;;;24.23;13.63;;;4.80;99.90;;;;;;5023880;28;20232;-82
2023/04/15 05:01:20;;;;;;;24.67;14.70;;;4.80;99.90;;;;;;5013958;28;20216;-83
2023/04/15 05:03:47;;;;;;;28.07;14.13;;;4.80;99.90;;;;;;5028382;28;20215;-82
2023/04/15 05:06:17;;;;;;;29.40;13.20;;;4.80;99.90;;;;;;5009933;28;20716;-83
2023/04/15 05:08:45;;;;;;;22.67;13.43;;;4.80;99.90;;;;;;5027881;28;20648;-82
2023/04/15 05:11:12;;;;;;;24.23;14.73;;;4.80;99.90;;;;;;5032364;28;20238;-83
2023/04/15 05:13:39;;;;;;;28.00;15.63;;;5.00;99.90;;;;;;5030313;28;20276;-80
2023/04/15 05:16:06;;;;;;;25.20;14.50;;;4.90;99.90;;;;;;5031971;28;20307;-82
2023/04/15 05:18:33;;;;;;;24.03;13.83;;;5.00;99.90;;;;;;5031425;28;20662;-82
2023/04/15 05:21:02;;;;;;;22.43;14.30;;;5.00;99.90;;;;;;5029534;28;20775;-80
2023/04/15 05:23:29;;;;;;;24.70;13.60;;;5.00;99.90;;;;;;5027032;28;20208;-81
2023/04/15 05:25:55;;;;;;;23.07;14.07;;;5.10;99.90;;;;;;5028629;28;20228;-81
2023/04/15 05:28:22;;;;;;;21.57;13.30;;;5.10;99.90;;;;;;5011589;28;20701;-81
2023/04/15 05:30:49;;;;;;;26.03;14.27;;;5.20;99.90;;;;;;5024832;28;20805;-81
2023/04/15 05:33:16;;;;;;;23.40;14.60;;;5.20;99.90;;;;;;5025056;28;20203;-82
2023/04/15 05:35:43;;;;;;;25.70;15.33;;;5.30;99.90;;;;;;5028786;28;20244;-82
2023/04/15 05:38:10;;;;;;;25.53;15.43;;;5.40;99.90;;;;;;5027811;28;20240;-86
2023/04/15 05:40:38;;;;;;;27.47;14.60;;;5.50;99.90;;;;;;5025551;28;20303;-83
2023/04/15 05:43:05;;;;;;;23.03;14.13;;;5.50;99.90;;;;;;5025412;28;20214;-81
2023/04/15 05:45:32;;;;;;;23.23;13.93;;;5.70;99.90;;;;;;5022683;28;20246;-84
2023/04/15 05:47:59;;;;;;;20.60;12.80;;;5.80;99.90;;;;;;5020357;28;20201;-82
2023/04/15 05:50:25;;;;;;;25.13;13.37;;;5.90;99.90;;;;;;5023507;28;20243;-82
2023/04/15 05:52:52;;;;;;;20.87;12.77;;;6.00;99.90;;;;;;5029789;28;20250;-81
2023/04/15 05:55:21;;;;;;;27.20;13.87;;;6.00;99.90;;;;;;5027111;28;20206;-83
2023/04/15 05:57:48;;;;;;;26.93;14.10;;;6.10;99.90;;;;;;5013122;28;20223;-83
2023/04/15 06:00:18;;;;;;;18.67;13.13;;;6.20;99.90;;;;;;5013893;28;20211;-84
2023/04/15 06:02:44;;;;;;;23.67;13.23;;;6.30;99.90;;;;;;5004242;28;20691;-85
2023/04/15 06:05:12;;;;;;;20.60;12.87;;;6.40;99.90;;;;;;5007520;28;20315;-83
2023/04/15 06:07:42;;;;;;;23.47;13.70;;;6.50;99.90;;;;;;5023124;28;20205;-82
2023/04/15 06:10:14;;;;;;;23.87;14.40;;;6.60;99.90;;;;;;5007282;28;20221;-82
2023/04/15 06:12:41;;;;;;;22.30;13.30;;;6.60;99.90;;;;;;5014382;28;20289;-82
2023/04/15 06:15:09;;;;;;;20.00;12.53;;;6.70;99.90;;;;;;5022834;28;20702;-81
2023/04/15 06:17:36;;;;;;;20.17;13.33;;;6.80;99.90;;;;;;5021485;28;20683;-82
2023/04/15 06:20:03;;;;;;;20.30;13.77;;;6.90;99.90;;;;;;5023682;28;20788;-82
2023/04/15 06:22:31;;;;;;;25.60;12.97;;;7.00;99.90;;;;;;5023489;28;20552;-82
2023/04/15 06:24:58;;;;;;;24.80;14.60;;;7.20;99.90;;;;;;5021345;28;20212;-83
2023/04/15 06:27:25;;;;;;;23.20;13.60;;;7.50;99.90;;;;;;5013821;28;20296;-82
2023/04/15 06:29:51;;;;;;;20.53;12.77;;;8.00;99.90;;;;;;5024573;28;20223;-83
2023/04/15 06:32:18;;;;;;;17.80;12.17;;;8.40;99.90;;;;;;5020378;28;20640;-82
2023/04/15 06:34:45;;;;;;;18.60;12.87;;;8.90;99.90;;;;;;5023697;28;20253;-82
2023/04/15 06:37:15;;;;;;;15.93;11.00;;;9.40;99.90;;;;;;5022752;28;20199;-81
2023/04/15 06:39:42;;;;;;;17.73;11.80;;;10.00;99.90;;;;;;5022588;28;20207;-81
2023/04/15 06:42:10;;;;;;;14.67;11.20;;;;;;;;;;5011390;28;20224;-82
2023/04/15 06:44:37;;;;;;;15.90;10.83;;;10.90;99.90;;;;;;5022136;28;20627;-84
2023/04/15 06:47:04;;;;;;;17.13;11.40;;;11.00;99.90;;;;;;5023289;28;20265;-81
2023/04/15 06:49:32;;;;;;;18.30;12.00;;;11.20;99.90;;;;;;5003375;28;20208;-82
2023/04/15 06:51:59;;;;;;;16.67;11.47;;;11.20;99.90;;;;;;5022795;28;20264;-81
2023/04/15 06:54:26;;;;;;;18.63;11.90;;;11.20;99.90;;;;;;5023287;28;20244;-81
2023/04/15 06:56:53;;;;;;;19.70;11.50;;;11.10;99.90;;;;;;5019646;28;20571;-82
2023/04/15 06:59:20;;;;;;;18.53;12.63;;;11.00;99.90;;;;;;5010242;28;20233;-84
2023/04/15 07:01:47;;;;;;;17.27;11.63;;;10.80;99.90;;;;;;5008970;28;20209;-82
2023/04/15 07:04:13;;;;;;;18.35;15.32;;;10.70;99.90;;;;;;5021264;28;20437;-82
2023/04/15 07:06:40;;;;;;;19.50;12.90;;;11.10;99.90;;;;;;5021476;28;20236;-81
2023/04/15 07:09:07;;;;;;;17.83;13.77;;;10.90;99.90;;;;;;5016458;28;20241;-84
2023/04/15 07:11:35;;;;;;;19.33;13.30;;;10.70;99.90;;;;;;5023605;28;20196;-80
2023/04/15 07:14:02;;;;;;;17.67;13.13;;;10.60;99.90;;;;;;5005764;28;20217;-81
2023/04/15 07:16:29;;;;;;;18.67;12.97;;;10.60;99.90;;;;;;5023968;28;20650;-82
2023/04/15 07:18:56;;;;;;;19.30;12.90;;;10.60;99.90;;;;;;5024259;28;20255;-81
2023/04/15 07:21:24;;;;;;;16.20;12.83;;;10.80;99.90;;;;;;5022194;28;20250;-80
2023/04/15 07:23:50;;;;;;;17.17;12.20;;;10.90;99.90;;;;;;5023285;28;20240;-81
2023/04/15 07:26:17;;;;;;;17.40;13.03;;;11.00;99.90;;;;;;5021142;28;20226;-81
2023/04/15 07:28:45;;;;;;;19.37;13.40;;;11.30;99.90;;;;;;5022385;28;20214;-81
2023/04/15 07:31:15;;;;;;;18.07;11.57;;;11.50;99.90;;;;;;5023195;28;20223;-81
2023/04/15 07:33:42;;;;;;;14.70;11.10;;;11.70;99.90;;;;;;5009161;28;20206;-80
2023/04/15 07:36:09;;;;;;;14.40;11.03;;;12.00;99.90;;;;;;5003960;28;20198;-82
2023/04/15 07:38:36;;;;;;;14.13;9.97;;;12.20;99.90;;;;;;5024257;28;20783;-80
2023/04/15 07:41:03;;;;;;;12.90;9.87;;;12.30;99.90;;;;;;5010446;28;20198;-80
2023/04/15 07:43:33;;;;;;;10.97;9.17;;;12.40;99.90;;;;;;5022780;28;20302;-80
2023/04/15 07:46:00;;;;;;;14.37;9.87;;;12.50;99.90;;;;;;5021405;28;20295;-82
2023/04/15 07:48:27;;;;;;;13.23;10.20;;;12.50;99.90;;;;;;5027369;28;20265;-81
2023/04/15 07:50:54;;;;;;;12.07;9.27;;;12.50;99.90;;;;;;5009704;28;20574;-81
2023/04/15 07:53:22;;;;;;;11.90;8.87;;;12.40;99.90;;;;;;5020454;28;20749;-81
2023/04/15 07:55:50;;;;;;;11.97;8.50;;;12.50;99.90;;;;;;5022795;28;20612;-80
2023/04/15 07:58:16;;;;;;;12.17;8.30;;;12.50;99.90;;;;;;5024772;28;20610;-79
2023/04/15 08:00:43;;;;;;;10.97;8.00;;;12.50;99.90;;;;;;5022940;28;20254;-80
2023/04/15 08:03:10;;;;;;;12.23;7.63;;;12.40;99.90;;;;;;5022444;28;20741;-80
2023/04/15 08:05:37;;;;;;;10.73;7.33;;;12.50;99.90;;;;;;5027849;28;20719;-80
2023/04/15 08:08:04;;;;;;;10.07;6.67;;;12.60;99.90;;;;;;5023573;28;20246;-81
2023/04/15 08:10:31;;;;;;;8.87;7.17;;;12.80;99.90;;;;;;5025125;28;20216;-79
2023/04/15 08:12:57;;;;;;;8.17;6.77;;;13.00;99.90;;;;;;5027325;28;20233;-81
2023/04/15 08:15:25;;;;;;;7.93;6.47;;;13.00;99.90;;;;;;5022848;28;20740;-83
2023/04/15 08:17:52;;;;;;;9.07;6.73;;;13.00;99.90;;;;;;5022442;28;20206;-83
2023/04/15 08:20:19;;;;;;;9.43;7.07;;;13.10;99.90;;;;;;5021871;28;20231;-81
2023/04/15 08:22:50;;;;;;;9.80;6.77;;;13.20;99.90;;;;;;5025514;28;20214;-81
2023/04/15 08:25:19;;;;;;;8.67;7.00;;;13.20;99.90;;;;;;5023036;28;20301;-80
2023/04/15 08:27:46;;;;;;;12.50;7.00;;;13.30;99.90;;;;;;5010055;28;20312;-82
2023/04/15 08:30:13;;;;;;;9.53;6.73;;;13.20;99.90;;;;;;5011759;28;20256;-81
2023/04/15 08:32:45;;;;;;;9.40;6.93;;;13.40;99.90;;;;;;5006145;28;20765;-78
2023/04/15 08:35:13;;;;;;;8.80;6.50;;;13.40;99.90;;;;;;5024036;28;20279;-80
2023/04/15 08:37:40;;;;;;;7.57;6.07;;;13.50;99.90;;;;;;5026753;28;20232;-80
2023/04/15 08:40:08;;;;;;;11.40;6.77;;;13.50;99.90;;;;;;5019346;28;20693;-81
2023/04/15 08:42:45;;;;;;;8.73;6.47;;;13.50;99.90;;;;;;5025716;28;20208;-81
2023/04/15 08:45:12;;;;;;;9.13;5.77;;;13.40;99.90;;;;;;5020014;28;20218;-80
2023/04/15 08:47:39;;;;;;;9.00;6.23;;;13.40;99.90;;;;;;5007166;28;20234;-84
2023/04/15 08:50:09;;;;;;;8.37;6.47;;;13.30;99.90;;;;;;5022375;28;20202;-80
2023/04/15 08:52:36;;;;;;;8.83;6.70;;;13.20;99.90;;;;;;5022040;28;20709;-83
2023/04/15 08:55:04;;;;;;;8.73;6.73;;;13.20;99.90;;;;;;5022067;28;20203;-81
2023/04/15 08:57:32;;;;;;;9.47;6.90;;;13.20;99.90;;;;;;5010341;28;20206;-81
2023/04/15 09:00:02;;;;;;;8.43;6.43;;;13.20;99.90;;;;;;5022926;28;20691;-80
2023/04/15 09:02:31;;;;;;;10.93;7.07;;;13.30;99.90;;;;;;5023167;28;20202;-83
2023/04/15 09:05:03;;;;;;;10.03;7.23;;;13.40;99.90;;;;;;5012255;28;20625;-85
2023/04/15 09:07:33;;;;;;;10.90;6.43;;;13.60;99.90;;;;;;5017582;28;21035;-81
2023/04/15 09:10:00;;;;;;;8.23;6.30;;;13.70;99.90;;;;;;5001005;28;20620;-81
2023/04/15 09:12:27;;;;;;;9.07;6.80;;;13.80;99.90;;;;;;5009539;28;20281;-80
2023/04/15 09:14:54;;;;;;;9.83;6.70;;;13.80;99.90;;;;;;5023802;28;20253;-81
2023/04/15 09:17:20;;;;;;;8.20;6.13;;;13.80;99.90;;;;;;5026483;28;20202;-81
2023/04/15 09:19:47;;;;;;;10.57;7.00;;;13.80;99.90;;;;;;5022482;28;20245;-83
2023/04/15 09:22:14;;;;;;;8.97;5.93;;;13.80;99.90;;;;;;5013660;28;20210;-81
2023/04/15 09:24:42;;;;;;;10.13;6.60;;;13.80;99.90;;;;;;5025173;28;20212;-80
2023/04/15 09:27:09;;;;;;;8.37;5.90;;;13.90;99.90;;;;;;5007721;28;20367;-79
2023/04/15 09:29:37;;;;;;;7.87;6.33;;;14.00;99.90;;;;;;5025540;28;20241;-83
2023/04/15 09:32:10;;;;;;;8.10;5.87;;;14.00;99.90;;;;;;5026398;28;20230;-82
2023/04/15 09:34:37;;;;;;;10.00;5.77;;;14.00;99.90;;;;;;5019606;28;20205;-81
2023/04/15 09:37:04;;;;;;;8.83;5.30;;;13.80;99.90;;;;;;5023455;28;20230;-80
2023/04/15 09:39:51;;;;;;;7.60;5.70;;;13.80;99.90;;;;;;5022913;28;20210;-81
2023/04/15 09:42:25;;;;;;;8.33;5.03;;;13.80;99.90;;;;;;5021241;28;20216;-82
2023/04/15 09:44:52;;;;;;;8.60;5.53;;;13.70;99.90;;;;;;5022667;28;20646;-81
2023/04/15 09:47:30;;;;;;;7.53;5.10;;;13.90;99.90;;;;;;5014200;28;20253;-79
2023/04/15 09:49:58;;;;;;;9.80;5.57;;;14.10;99.90;;;;;;5012667;28;20246;-81
2023/04/15 09:52:26;;;;;;;7.07;5.50;;;14.40;99.90;;;;;;5012588;28;20206;-82
2023/04/15 09:54:57;;;;;;;8.17;5.57;;;14.70;99.90;;;;;;5026187;28;20216;-82
2023/04/15 09:57:32;;;;;;;6.67;5.10;;;14.90;99.90;;;;;;5021504;28;20202;-79
2023/04/15 09:59:59;;;;;;;7.83;5.40;;;15.10;99.90;;;;;;5022304;28;20248;-82
2023/04/15 10:02:27;;;;;;;6.73;5.10;;;15.10;99.90;;;;;;5026705;28;20551;-81
2023/04/15 10:04:54;;;;;;;7.83;5.23;;;15.00;99.90;;;;;;5020270;28;20202;-81
2023/04/15 10:07:22;;;;;;;5.90;5.03;;;14.90;99.90;;;;;;5021619;28;20320;-82
2023/04/15 10:09:50;;;;;;;6.53;4.77;;;14.70;99.90;;;;;;5024955;28;20200;-79
2023/04/15 10:12:19;;;;;;;7.13;4.30;;;14.70;99.90;;;;;;5032081;28;20237;-82
2023/04/15 10:14:57;;;;;;;5.60;4.10;;;14.60;99.90;;;;;;5010620;28;20222;-81
2023/04/15 10:17:32;;;;;;;6.37;4.97;;;14.60;99.90;;;;;;5029940;28;20256;-81
2023/04/15 10:20:02;;;;;;;7.30;4.50;;;14.70;99.90;;;;;;5012957;28;20225;-83
2023/04/15 10:22:30;;;;;;;5.77;4.03;;;14.90;99.90;;;;;;5028839;28;20198;-80
2023/04/15 10:24:58;;;;;;;6.63;4.30;;;14.80;99.90;;;;;;5030515;28;20307;-80
2023/04/15 10:27:29;;;;;;;6.43;4.30;;;14.80;99.90;;;;;;5031579;28;20232;-79
2023/04/15 10:29:56;;;;;;;4.73;3.63;;;14.80;99.90;;;;;;5029119;28;20260;-82
2023/04/15 10:32:24;;;;;;;6.57;3.83;;;14.70;99.90;;;;;;5022962;28;20206;-80
2023/04/15 10:34:52;;;;;;;4.70;3.70;;;14.70;99.90;;;;;;5032581;28;20194;-78
2023/04/15 10:37:21;;;;;;;5.33;3.50;;;14.70;99.90;;;;;;5032300;28;20214;-79
2023/04/15 10:39:49;;;;;;;4.30;3.40;;;14.70;99.90;;;;;;5015561;28;20210;-79
2023/04/15 10:42:18;;;;;;;4.40;3.50;;;14.50;99.90;;;;;;5027430;28;20237;-80
2023/04/15 10:44:50;;;;;;;7.80;4.03;;;14.30;99.90;;;;;;5026837;28;20218;-80
2023/04/15 10:47:19;;;;;;;5.67;3.83;;;14.40;99.90;;;;;;5016800;28;20261;-81
2023/04/15 10:49:51;;;;;;;5.20;3.50;;;14.40;99.90;;;;;;5022299;28;20205;-81
2023/04/15 10:52:26;;;;;;;5.83;3.60;;;14.20;99.90;;;;;;5024885;28;20642;-81
2023/04/15 10:55:17;;;;;;;4.43;3.13;;;14.00;99.90;;;;;;5021872;28;20593;-80
2023/04/15 10:57:44;;;;;;;5.37;3.67;;;14.00;99.90;;;;;;5025521;28;20645;-81
2023/04/15 11:00:16;;;;;;;5.27;3.97;;;14.00;99.90;;;;;;5023308;28;20225;-81
2023/04/15 11:02:57;;;;;;;5.20;3.60;;;14.10;99.90;;;;;;5022755;28;20306;-80
2023/04/15 11:05:52;;;;;;;5.83;3.30;;;14.20;99.90;;;;;;5027508;28;20205;-79
2023/04/15 11:08:39;;;;;;;3.80;2.70;;;14.30;99.90;;;;;;5028915;28;20233;-79
2023/04/15 11:11:06;;;;;;;4.23;2.60;;;14.30;99.90;;;;;;5009619;28;20688;-79
2023/04/15 11:13:33;;;;;;;5.03;2.70;;;14.40;99.90;;;;;;5023310;28;20289;-79
2023/04/15 11:16:01;;;;;;;4.00;3.00;;;14.70;99.90;;;;;;5023113;28;20226;-79
2023/04/15 11:18:30;;;;;;;3.67;2.90;;;14.90;99.90;;;;;;5025053;28;20217;-81
2023/04/15 11:21:02;;;;;;;6.77;3.30;;;15.20;99.90;;;;;;5021510;28;20656;-80
2023/04/15 11:23:47;;;;;;;5.07;2.90;;;15.20;99.90;;;;;;5027679;28;20235;-78
2023/04/15 11:26:14;;;;;;;5.17;2.93;;;15.20;99.90;;;;;;5018898;28;20249;-79
2023/04/15 11:28:43;;;;;;;3.43;2.83;;;15.10;99.90;;;;;;5024809;28;20234;-79
2023/04/15 11:31:16;;;;;;;4.00;2.70;;;15.10;99.90;;;;;;5019515;28;20777;-79
2023/04/15 11:33:58;;;;;;;5.17;3.13;;;15.00;99.90;;;;;;5023415;28;20209;-81
2023/04/15 11:36:26;;;;;;;4.30;2.70;;;15.00;99.90;;;;;;5004110;28;20203;-80
2023/04/15 11:38:54;;;;;;;3.80;2.27;;;15.00;99.90;;;;;;5001023;28;20276;-80
2023/04/15 11:41:22;;;;;;;5.10;3.13;;;14.80;99.90;;;;;;5022405;28;20280;-79
2023/04/15 11:43:50;;;;;;;5.53;2.90;;;14.80;99.90;;;;;;5025472;28;20205;-81
2023/04/15 11:46:17;;;;;;;4.60;2.83;;;14.70;99.90;;;;;;5019439;28;20244;-80
2023/04/15 11:48:45;;;;;;;4.97;2.90;;;14.70;99.90;;;;;;5026062;28;20265;-82
2023/04/15 11:51:13;;;;;;;3.77;2.73;;;14.70;99.90;;;;;;5011035;28;20213;-80
2023/04/15 11:53:50;;;;;;;4.80;2.60;;;14.60;99.90;;;;;;5007916;28;20606;-81
2023/04/15 11:56:19;;;;;;;6.20;2.77;;;14.70;99.90;;;;;;5021391;28;20205;-80
2023/04/15 11:58:50;;;;;;;3.80;2.50;;;14.70;99.90;;;;;;5027531;28;20233;-81
2023/04/15 12:01:17;;;;;;;2.90;2.60;;;14.90;99.90;;;;;;5022004;28;20202;-80
2023/04/15 12:03:50;;;;;;;4.03;2.23;;;14.90;99.90;;;;;;5008100;28;20292;-80
2023/04/15 12:06:26;;;;;;;3.03;1.93;;;14.90;99.90;;;;;;5019322;28;20571;-80
2023/04/15 12:09:16;;;;;;;3.40;2.50;;;15.00;99.90;;;;;;5023501;28;20759;-80
2023/04/15 12:11:47;;;;;;;4.07;2.30;;;15.30;99.90;;;;;;5003866;28;20283;-79
2023/04/15 12:14:20;;;;;;;4.17;2.40;;;15.30;99.90;;;;;;5025067;28;20697;-78
2023/04/15 12:16:49;;;;;;;3.43;2.47;;;15.20;99.90;;;;;;5020825;28;20241;-80
2023/04/15 12:19:37;;;;;;;3.73;2.67;;;15.00;99.90;;;;;;5011671;28;20670;-80
2023/04/15 12:22:09;;;;;;;3.60;2.87;;;14.90;99.90;;;;;;5002579;28;20242;-80
2023/04/15 12:24:36;;;;;;;4.87;2.47;;;14.80;99.90;;;;;;5004616;28;20219;-79
2023/04/15 12:27:10;;;;;;;3.67;2.60;;;14.80;99.90;;;;;;5003495;28;20693;-80
2023/04/15 12:29:38;;;;;;;4.17;2.73;;;14.80;99.90;;;;;;5001831;28;20211;-80
2023/04/15 12:32:07;;;;;;;3.40;2.30;;;14.70;99.90;;;;;;5002368;28;20253;-78
2023/04/15 12:34:51;;;;;;;2.63;1.70;;;14.90;99.90;;;;;;5001734;28;20577;-81
2023/04/15 12:37:19;;;;;;;2.33;1.60;;;15.10;99.90;;;;;;4999632;28;20214;-78
2023/04/15 12:39:47;;;;;;;6.50;2.10;;;15.30;99.90;;;;;;4986387;28;20225;-81
2023/04/15 12:42:18;;;;;;;4.03;1.70;;;15.30;99.90;;;;;;5002882;28;20808;-79
2023/04/15 12:44:46;;;;;;;3.57;1.87;;;15.20;99.90;;;;;;4991453;28;20225;-79
2023/04/15 12:47:13;;;;;;;1.87;1.50;;;15.10;99.90;;;;;;5003498;28;20226;-79